Time;durP1;ratioP1;P1;durP2;ratioP2;P2;SDS_P1;SDS_P2;PMS_P1;PMS_P2;Temp;Humidity;BMP_temperature;BMP_pressure;BME280_temperature;BME280_humidity;BME280_pressure;Samples;Min_cycle;Max_cycle;Signal;HPM_P1;HPM_P2
2021/03/02 00:00:14;;;;;;;51.47;31.85;;;;;;;;;;5096714;28;20020;-60
2021/03/02 00:02:41;;;;;;;55.88;32.47;;;;;;;;;;5096507;28;20103;-60
2021/03/02 00:05:07;;;;;;;52.72;31.58;;;;;;;;;;5096391;28;20016;-60
2021/03/02 00:07:34;;;;;;;52.88;32.22;;;;;;;;;;5096507;28;20039;-61
2021/03/02 00:10:02;;;;;;;51.67;31.40;;;;;;;;;;5096539;28;20020;-60
2021/03/02 00:12:27;;;;;;;52.58;31.85;;;;;;;;;;5095120;28;20024;-60
2021/03/02 00:14:53;;;;;;;53.00;31.50;;;;;;;;;;5096340;28;20020;-60
2021/03/02 00:17:27;;;;;;;51.47;31.33;;;;;;;;;;5096262;28;20070;-60
2021/03/02 00:20:06;;;;;;;52.03;30.45;;;;;;;;;;5095823;28;20067;-60
2021/03/02 00:22:52;;;;;;;51.92;30.92;;;;;;;;;;5096176;28;20062;-60
2021/03/02 00:25:18;;;;;;;47.55;29.13;;;;;;;;;;5091452;28;20039;-60
2021/03/02 00:27:43;;;;;;;52.55;30.15;;;;;;;;;;5094894;28;20470;-60
2021/03/02 00:30:09;;;;;;;50.33;30.27;;;;;;;;;;5094844;28;20035;-60
2021/03/02 00:32:37;;;;;;;52.00;31.05;;;;;;;;;;5095989;28;20027;-59
2021/03/02 00:35:02;;;;;;;50.67;30.98;;;;;;;;;;5096093;28;20043;-60
2021/03/02 00:37:27;;;;;;;51.70;30.50;;;;;;;;;;5094480;28;20028;-60
2021/03/02 00:39:53;;;;;;;54.20;31.50;;;;;;;;;;5094586;28;20428;-60
2021/03/02 00:42:18;;;;;;;55.03;30.85;;;;;;;;;;5095657;28;20020;-60
2021/03/02 00:44:44;;;;;;;50.90;30.85;;;;;;;;;;5094361;28;20028;-60
2021/03/02 00:47:09;;;;;;;53.13;29.98;;;;;;;;;;5094679;28;20103;-60
2021/03/02 00:49:35;;;;;;;52.17;31.13;;;;;;;;;;5095695;28;20121;-60
2021/03/02 00:52:00;;;;;;;53.90;31.02;;;;;;;;;;5094451;28;20437;-59
2021/03/02 00:54:26;;;;;;;51.97;30.75;;;;;;;;;;5095511;28;20122;-60
2021/03/02 00:56:52;;;;;;;51.78;30.65;;;;;;;;;;5095377;28;20115;-60
2021/03/02 00:59:19;;;;;;;53.25;31.65;;;;;;;;;;5094169;28;20433;-60
2021/03/02 01:01:45;;;;;;;52.97;32.90;;;;;;;;;;5094153;28;20016;-60
2021/03/02 01:04:11;;;;;;;53.00;30.85;;;;;;;;;;5095463;28;20392;-60
2021/03/02 01:06:37;;;;;;;52.15;30.80;;;;;;;;;;5095434;28;20051;-60
2021/03/02 01:09:06;;;;;;;58.20;33.85;;;;;;;;;;5095264;28;20028;-60
2021/03/02 01:11:32;;;;;;;44.00;25.10;;;;;;;;;;5093944;28;20024;-60
2021/03/02 01:13:58;;;;;;;57.17;32.75;;;;;;;;;;5093909;28;20027;-59
2021/03/02 01:16:23;;;;;;;59.65;33.78;;;;;;;;;;5095134;28;20095;-59
2021/03/02 01:18:49;;;;;;;60.00;33.78;;;;;;;;;;5093338;28;20044;-59
2021/03/02 01:21:14;;;;;;;61.88;33.70;;;;;;;;;;5095320;28;20028;-59
2021/03/02 01:23:40;;;;;;;63.85;33.65;;;;;;;;;;5093702;28;20032;-60
2021/03/02 01:26:05;;;;;;;60.35;34.17;;;;;;;;;;5094958;28;20024;-60
2021/03/02 01:28:31;;;;;;;58.92;33.40;;;;;;;;;;5094956;28;20050;-60
2021/03/02 01:30:56;;;;;;;59.17;32.83;;;;;;;;;;5094891;28;20430;-60
2021/03/02 01:33:21;;;;;;;63.00;33.92;;;;;;;;;;5094856;28;20062;-60
2021/03/02 01:35:47;;;;;;;62.63;35.17;;;;;;;;;;5093533;28;20054;-60
2021/03/02 01:38:12;;;;;;;65.13;35.38;;;;;;;;;;5094618;28;20028;-60
2021/03/02 01:40:38;;;;;;;68.63;36.88;;;;;;;;;;5093540;28;20535;-59
2021/03/02 01:43:03;;;;;;;66.35;37.53;;;;;;;;;;5094711;28;20476;-60
2021/03/02 01:45:29;;;;;;;61.25;33.20;;;;;;;;;;5093520;28;20106;-59
2021/03/02 01:47:54;;;;;;;65.38;35.83;;;;;;;;;;5094563;28;20029;-60
2021/03/02 01:50:21;;;;;;;67.68;37.42;;;;;;;;;;5094512;28;20036;-60
2021/03/02 01:52:47;;;;;;;64.13;36.10;;;;;;;;;;5094389;28;20031;-60
2021/03/02 01:55:14;;;;;;;65.95;36.58;;;;;;;;;;5094365;28;20429;-59
2021/03/02 01:57:39;;;;;;;67.88;36.17;;;;;;;;;;5094118;28;20024;-60
2021/03/02 02:00:17;;;;;;;70.95;36.83;;;;;;;;;;5092952;28;20024;-59
2021/03/02 02:02:57;;;;;;;70.90;36.92;;;;;;;;;;5094302;28;20051;-60
2021/03/02 02:05:23;;;;;;;70.38;36.15;;;;;;;;;;5093152;28;20028;-59
2021/03/02 02:07:53;;;;;;;75.25;39.33;;;;;;;;;;5093014;28;20028;-60
2021/03/02 02:10:32;;;;;;;77.97;41.88;;;;;;;;;;5092955;28;20052;-60
2021/03/02 02:13:12;;;;;;;78.47;39.65;;;;;;;;;;5093967;28;20024;-60
2021/03/02 02:15:38;;;;;;;87.67;41.60;;;;;;;;;;5093125;28;20031;-60
2021/03/02 02:18:06;;;;;;;81.82;41.85;;;;;;;;;;5092666;28;20051;-60
2021/03/02 02:20:35;;;;;;;80.50;41.70;;;;;;;;;;5093697;28;20070;-60
2021/03/02 02:23:09;;;;;;;79.00;40.53;;;;;;;;;;5093911;28;20028;-60
2021/03/02 02:25:54;;;;;;;82.55;43.83;;;;;;;;;;5093732;28;20073;-60
2021/03/02 02:28:20;;;;;;;83.97;43.25;;;;;;;;;;5092499;28;20031;-60
2021/03/02 02:30:49;;;;;;;83.35;42.88;;;;;;;;;;5093655;28;20043;-60
2021/03/02 02:33:15;;;;;;;87.72;43.38;;;;;;;;;;5093760;28;20035;-60
2021/03/02 02:35:42;;;;;;;88.57;43.67;;;;;;;;;;5093702;28;20024;-60
2021/03/02 02:38:09;;;;;;;86.25;43.92;;;;;;;;;;5093448;28;20391;-61
2021/03/02 02:40:36;;;;;;;89.45;43.92;;;;;;;;;;5093602;28;20067;-60
2021/03/02 02:43:02;;;;;;;85.47;42.47;;;;;;;;;;5092249;28;20028;-60
2021/03/02 02:45:27;;;;;;;81.55;41.47;;;;;;;;;;5093427;28;20103;-60
2021/03/02 02:47:53;;;;;;;88.55;43.33;;;;;;;;;;5093528;28;20085;-60
2021/03/02 02:50:18;;;;;;;94.30;46.53;;;;;;;;;;5093308;28;20153;-60
2021/03/02 02:52:44;;;;;;;94.68;45.25;;;;;;;;;;5093386;28;20024;-59
2021/03/02 02:55:12;;;;;;;88.53;42.20;;;;;;;;;;5093328;28;20020;-60
2021/03/02 02:57:42;;;;;;;90.38;43.42;;;;;;;;;;5093400;28;20031;-60
2021/03/02 03:00:08;;;;;;;92.82;44.08;;;;;;;;;;5093333;28;20446;-60
2021/03/02 03:02:34;;;;;;;88.00;41.40;;;;;;;;;;5093386;28;20028;-59
2021/03/02 03:05:02;;;;;;;90.28;42.30;;;;;;;;;;5093337;28;20468;-60
2021/03/02 03:07:39;;;;;;;94.40;44.20;;;;;;;;;;5091725;28;20119;-61
2021/03/02 03:10:05;;;;;;;92.85;43.30;;;;;;;;;;5091639;28;20085;-60
2021/03/02 03:12:31;;;;;;;81.28;40.25;;;;;;;;;;5093187;28;20020;-60
2021/03/02 03:15:01;;;;;;;92.63;41.45;;;;;;;;;;5091961;28;20032;-60
2021/03/02 03:17:28;;;;;;;83.85;42.05;;;;;;;;;;5091999;28;20130;-60
2021/03/02 03:19:54;;;;;;;90.07;40.60;;;;;;;;;;5092805;28;20090;-60
2021/03/02 03:22:19;;;;;;;91.85;42.28;;;;;;;;;;5091735;28;20028;-60
2021/03/02 03:24:45;;;;;;;78.60;36.75;;;;;;;;;;5093019;28;20153;-60
2021/03/02 03:27:11;;;;;;;88.78;41.13;;;;;;;;;;5093025;28;20020;-59
2021/03/02 03:29:38;;;;;;;89.03;41.17;;;;;;;;;;5092927;28;20123;-60
2021/03/02 03:32:04;;;;;;;86.45;41.33;;;;;;;;;;5093071;28;20476;-60
2021/03/02 03:34:31;;;;;;;91.53;41.05;;;;;;;;;;5092932;28;20498;-60
2021/03/02 03:36:57;;;;;;;93.50;42.88;;;;;;;;;;5092791;28;20031;-60
2021/03/02 03:39:22;;;;;;;90.22;40.90;;;;;;;;;;5093105;28;20028;-60
2021/03/02 03:41:49;;;;;;;96.38;43.08;;;;;;;;;;5091775;28;20031;-60
2021/03/02 03:44:14;;;;;;;94.40;43.17;;;;;;;;;;5092925;28;20387;-60
2021/03/02 03:46:40;;;;;;;91.28;42.13;;;;;;;;;;5092759;28;20020;-60
2021/03/02 03:49:05;;;;;;;90.20;42.25;;;;;;;;;;5093015;28;20036;-59
2021/03/02 03:51:31;;;;;;;84.00;40.78;;;;;;;;;;5092774;28;20016;-60
2021/03/02 03:53:57;;;;;;;94.38;42.15;;;;;;;;;;5092912;28;20103;-60
2021/03/02 03:56:22;;;;;;;87.35;39.92;;;;;;;;;;5092818;28;20107;-60
2021/03/02 03:58:49;;;;;;;82.38;38.15;;;;;;;;;;5092652;28;20024;-60
2021/03/02 04:01:15;;;;;;;95.63;43.85;;;;;;;;;;5092442;28;20029;-61
2021/03/02 04:03:40;;;;;;;92.63;41.85;;;;;;;;;;5091334;28;20059;-60
2021/03/02 04:06:06;;;;;;;93.53;41.00;;;;;;;;;;5092650;28;20031;-60
2021/03/02 04:08:32;;;;;;;85.03;39.90;;;;;;;;;;5092820;28;20055;-60
2021/03/02 04:10:58;;;;;;;79.47;38.28;;;;;;;;;;5092668;28;20022;-60
2021/03/02 04:13:25;;;;;;;96.05;41.08;;;;;;;;;;5091428;28;20055;-60
2021/03/02 04:15:51;;;;;;;82.00;37.70;;;;;;;;;;5092690;28;20020;-60
2021/03/02 04:18:17;;;;;;;81.68;38.42;;;;;;;;;;5092518;28;20036;-60
2021/03/02 04:20:43;;;;;;;78.53;37.22;;;;;;;;;;5092382;28;20049;-60
2021/03/02 04:23:09;;;;;;;73.57;35.92;;;;;;;;;;5096106;28;20035;-60
2021/03/02 04:25:34;;;;;;;70.72;35.47;;;;;;;;;;5094840;28;20013;-60
2021/03/02 04:28:00;;;;;;;68.45;33.05;;;;;;;;;;5096034;28;20032;-59
2021/03/02 04:30:25;;;;;;;69.63;32.95;;;;;;;;;;5095976;28;20395;-60
2021/03/02 04:32:51;;;;;;;75.30;35.80;;;;;;;;;;5095897;28;20024;-60
2021/03/02 04:35:16;;;;;;;72.65;34.33;;;;;;;;;;5095853;28;20016;-60
2021/03/02 04:37:42;;;;;;;73.18;35.65;;;;;;;;;;5095816;28;20119;-59
2021/03/02 04:40:08;;;;;;;78.65;36.80;;;;;;;;;;5095726;28;20024;-60
2021/03/02 04:42:33;;;;;;;68.85;32.72;;;;;;;;;;5095942;28;20509;-60
2021/03/02 04:44:59;;;;;;;76.93;35.13;;;;;;;;;;5095749;28;20012;-60
2021/03/02 04:47:24;;;;;;;73.88;36.20;;;;;;;;;;5095772;28;20035;-60
2021/03/02 04:49:50;;;;;;;72.88;35.35;;;;;;;;;;5095686;28;20023;-60
2021/03/02 04:52:18;;;;;;;72.03;34.45;;;;;;;;;;5095752;28;20055;-60
2021/03/02 04:54:44;;;;;;;76.13;36.30;;;;;;;;;;5095615;28;20031;-60
2021/03/02 04:57:09;;;;;;;77.70;36.78;;;;;;;;;;5095198;28;20028;-60
2021/03/02 04:59:35;;;;;;;74.15;35.63;;;;;;;;;;5094507;28;20028;-60
2021/03/02 05:02:00;;;;;;;71.82;35.03;;;;;;;;;;5095471;28;20107;-61
2021/03/02 05:04:26;;;;;;;70.85;34.15;;;;;;;;;;5095469;28;20110;-60
2021/03/02 05:06:51;;;;;;;70.10;34.83;;;;;;;;;;5095303;28;20552;-61
2021/03/02 05:09:17;;;;;;;75.03;35.13;;;;;;;;;;5095254;28;20426;-61
2021/03/02 05:11:42;;;;;;;71.78;34.10;;;;;;;;;;5095215;28;20025;-60
2021/03/02 05:14:08;;;;;;;72.05;34.50;;;;;;;;;;5095301;28;20013;-60
2021/03/02 05:16:33;;;;;;;66.88;31.90;;;;;;;;;;5095225;28;20051;-60
2021/03/02 05:19:01;;;;;;;65.53;32.10;;;;;;;;;;5093343;28;20058;-60
2021/03/02 05:21:26;;;;;;;57.65;27.30;;;;;;;;;;5095199;28;20501;-59
2021/03/02 05:23:53;;;;;;;74.90;36.17;;;;;;;;;;5093658;28;20024;-59
2021/03/02 05:26:22;;;;;;;71.70;34.92;;;;;;;;;;5095009;28;20106;-60
2021/03/02 05:28:48;;;;;;;70.63;33.70;;;;;;;;;;5094920;28;20411;-60
2021/03/02 05:31:14;;;;;;;73.55;33.75;;;;;;;;;;5093565;28;20144;-60
2021/03/02 05:33:39;;;;;;;76.63;35.83;;;;;;;;;;5094477;28;20025;-60
2021/03/02 05:36:05;;;;;;;70.88;34.53;;;;;;;;;;5094785;28;20024;-67
2021/03/02 05:38:30;;;;;;;69.13;33.78;;;;;;;;;;5094689;28;20086;-60
2021/03/02 05:40:56;;;;;;;72.28;33.03;;;;;;;;;;5094671;28;20031;-67
2021/03/02 05:43:21;;;;;;;51.20;25.17;;;;;;;;;;5094702;28;20376;-68
2021/03/02 05:45:47;;;;;;;55.45;26.65;;;;;;;;;;5094785;28;20074;-67
2021/03/02 05:48:13;;;;;;;54.45;25.40;;;;;;;;;;5094141;28;20103;-67
2021/03/02 05:50:38;;;;;;;60.10;27.30;;;;;;;;;;5093090;28;20063;-68
2021/03/02 05:53:04;;;;;;;69.53;32.60;;;;;;;;;;5093075;28;20118;-68
2021/03/02 05:55:32;;;;;;;58.28;26.15;;;;;;;;;;5094377;28;20032;-68
2021/03/02 05:57:58;;;;;;;57.90;26.70;;;;;;;;;;5094239;28;20476;-66
2021/03/02 06:00:24;;;;;;;51.45;24.63;;;;;;;;;;5094218;28;20115;-66
2021/03/02 06:02:49;;;;;;;71.97;33.47;;;;;;;;;;5093145;28;20103;-67
2021/03/02 06:05:16;;;;;;;67.97;31.80;;;;;;;;;;5094335;28;20111;-67
2021/03/02 06:07:42;;;;;;;74.47;34.33;;;;;;;;;;5094176;28;20020;-67
2021/03/02 06:10:08;;;;;;;76.82;36.40;;;;;;;;;;5094184;28;20032;-67
2021/03/02 06:12:52;;;;;;;75.57;36.20;;;;;;;;;;5093986;28;20106;-67
2021/03/02 06:15:19;;;;;;;71.97;33.72;;;;;;;;;;5094132;28;20088;-67
2021/03/02 06:17:45;;;;;;;79.03;35.05;;;;;;;;;;5086928;28;20457;-59
2021/03/02 06:20:18;;;;;;;80.82;35.17;;;;;;;;;;5073444;28;20039;-60
2021/03/02 06:22:46;;;;;;;73.05;32.83;;;;;;;;;;5073708;28;20463;-67
2021/03/02 06:25:26;;;;;;;70.80;31.42;;;;;;;;;;5073666;28;20070;-67
2021/03/02 06:27:51;;;;;;;79.78;35.47;;;;;;;;;;5073663;28;20042;-67
2021/03/02 06:30:17;;;;;;;83.85;36.15;;;;;;;;;;5073790;28;20107;-67
2021/03/02 06:32:45;;;;;;;57.17;26.27;;;;;;;;;;5080384;28;20028;-66
2021/03/02 06:35:11;;;;;;;76.22;34.13;;;;;;;;;;5094406;28;20104;-66
2021/03/02 06:37:41;;;;;;;84.28;37.97;;;;;;;;;;5093900;28;20036;-67
2021/03/02 06:40:07;;;;;;;93.30;41.38;;;;;;;;;;5093644;28;20026;-67
2021/03/02 06:42:36;;;;;;;95.10;42.85;;;;;;;;;;5092637;28;20020;-66
2021/03/02 06:45:06;;;;;;;93.65;41.22;;;;;;;;;;5093055;28;20054;-66
2021/03/02 06:47:35;;;;;;;90.00;41.38;;;;;;;;;;5092118;28;20035;-66
2021/03/02 06:50:01;;;;;;;100.28;45.25;;;;;;;;;;5076367;28;20028;-66
2021/03/02 06:52:32;;;;;;;87.28;39.97;;;;;;;;;;5093245;28;20035;-60
2021/03/02 06:54:58;;;;;;;98.60;42.80;;;;;;;;;;5093244;28;20050;-60
2021/03/02 06:57:24;;;;;;;91.93;39.40;;;;;;;;;;5091323;28;20109;-67
2021/03/02 07:00:01;;;;;;;99.35;42.55;;;;;;;;;;5093519;28;20386;-66
2021/03/02 07:02:46;;;;;;;83.00;38.70;;;;;;;;;;5092476;28;20086;-67
2021/03/02 07:05:15;;;;;;;80.68;33.60;;;;;;;;;;5093071;28;20107;-67
2021/03/02 07:07:41;;;;;;;92.22;39.42;;;;;;;;;;5091818;28;20020;-67
2021/03/02 07:10:08;;;;;;;95.63;39.72;;;;;;;;;;5091683;28;20032;-67
2021/03/02 07:12:36;;;;;;;89.95;37.63;;;;;;;;;;5092965;28;20222;-67
2021/03/02 07:15:04;;;;;;;81.28;35.25;;;;;;;;;;5093390;28;20031;-66
2021/03/02 07:17:30;;;;;;;88.53;39.50;;;;;;;;;;5092987;28;20468;-60
2021/03/02 07:19:56;;;;;;;69.00;29.08;;;;;;;;;;5091587;28;20055;-60
2021/03/02 07:22:23;;;;;;;70.88;31.00;;;;;;;;;;5093546;28;20055;-60
2021/03/02 07:24:50;;;;;;;81.78;34.63;;;;;;;;;;5093622;28;20089;-60
2021/03/02 07:27:18;;;;;;;96.05;41.10;;;;;;;;;;5093347;28;20144;-60
2021/03/02 07:29:44;;;;;;;92.43;41.90;;;;;;;;;;5093181;28;20111;-59
2021/03/02 07:32:09;;;;;;;102.40;43.67;;;;;;;;;;5093284;28;20059;-60
2021/03/02 07:34:36;;;;;;;78.95;33.42;;;;;;;;;;5091770;28;20070;-59
2021/03/02 07:37:01;;;;;;;88.18;38.00;;;;;;;;;;5091808;28;20035;-59
2021/03/02 07:39:27;;;;;;;80.35;34.30;;;;;;;;;;5093026;28;20447;-59
2021/03/02 07:41:53;;;;;;;57.17;22.88;;;;;;;;;;5093085;28;20372;-60
2021/03/02 07:44:19;;;;;;;73.30;30.85;;;;;;;;;;5093224;28;20032;-60
2021/03/02 07:46:53;;;;;;;102.43;40.92;;;;;;;;;;5092396;28;20371;-60
2021/03/02 07:49:22;;;;;;;67.70;30.23;;;;;;;;;;5073109;28;20033;-60
2021/03/02 07:52:12;;;;;;;68.60;28.98;;;;;;;;;;5073008;28;20048;-60
2021/03/02 07:54:37;;;;;;;80.53;34.17;;;;;;;;;;5071469;28;20053;-60
2021/03/02 07:57:17;;;;;;;81.13;34.20;;;;;;;;;;5076521;28;20086;-60
2021/03/02 07:59:45;;;;;;;73.53;30.73;;;;;;;;;;5092066;28;20496;-60
2021/03/02 08:02:17;;;;;;;104.70;45.65;;;;;;;;;;5095287;28;20020;-60
2021/03/02 08:04:44;;;;;;;92.28;40.40;;;;;;;;;;5096620;28;20155;-60
2021/03/02 08:07:22;;;;;;;88.65;39.70;;;;;;;;;;5096486;28;20024;-60
2021/03/02 08:09:49;;;;;;;95.10;38.75;;;;;;;;;;5097058;28;20035;-60
2021/03/02 08:12:23;;;;;;;70.28;31.00;;;;;;;;;;5097145;28;20016;-60
2021/03/02 08:14:48;;;;;;;71.18;29.85;;;;;;;;;;5096760;28;20024;-60
2021/03/02 08:17:20;;;;;;;60.83;28.25;;;;;;;;;;5096170;28;20460;-60
2021/03/02 08:19:48;;;;;;;90.57;40.20;;;;;;;;;;5080882;28;20127;-60
2021/03/02 08:22:16;;;;;;;88.88;39.45;;;;;;;;;;5096087;28;20027;-59
2021/03/02 08:25:04;;;;;;;89.78;40.08;;;;;;;;;;5096581;28;20025;-59
2021/03/02 08:27:40;;;;;;;71.22;33.20;;;;;;;;;;5096385;28;20043;-60
2021/03/02 08:30:10;;;;;;;69.85;32.40;;;;;;;;;;5095870;28;20512;-61
2021/03/02 08:32:36;;;;;;;80.10;35.90;;;;;;;;;;5096031;28;20488;-60
2021/03/02 08:35:03;;;;;;;94.32;43.05;;;;;;;;;;5089589;28;20023;-61
2021/03/02 08:37:42;;;;;;;95.82;43.58;;;;;;;;;;5076238;28;20028;-60
2021/03/02 08:40:08;;;;;;;70.50;32.00;;;;;;;;;;5081068;28;20349;-60
2021/03/02 08:42:35;;;;;;;66.13;30.20;;;;;;;;;;5093196;28;20024;-60
2021/03/02 08:45:05;;;;;;;84.55;38.80;;;;;;;;;;5085953;28;20044;-60
2021/03/02 08:47:31;;;;;;;106.47;45.38;;;;;;;;;;5083547;28;20016;-60
2021/03/02 08:49:56;;;;;;;85.70;40.78;;;;;;;;;;5095728;28;20113;-60
2021/03/02 08:52:34;;;;;;;72.43;33.17;;;;;;;;;;5094807;28;20035;-60
2021/03/02 08:54:59;;;;;;;89.97;41.42;;;;;;;;;;5095823;28;20089;-61
2021/03/02 08:57:25;;;;;;;90.30;40.13;;;;;;;;;;5076005;28;20037;-60
2021/03/02 08:59:50;;;;;;;74.25;35.45;;;;;;;;;;5074640;28;20031;-61
2021/03/02 09:02:16;;;;;;;85.95;39.65;;;;;;;;;;5076117;28;20016;-61
2021/03/02 09:04:42;;;;;;;94.72;44.65;;;;;;;;;;5077411;28;20031;-61
2021/03/02 09:07:07;;;;;;;93.60;43.38;;;;;;;;;;5080795;28;20067;-61
2021/03/02 09:09:34;;;;;;;82.75;40.40;;;;;;;;;;5084230;28;20026;-61
2021/03/02 09:11:59;;;;;;;73.70;35.25;;;;;;;;;;5085060;28;20020;-61
2021/03/02 09:14:30;;;;;;;82.03;40.58;;;;;;;;;;5083591;28;20035;-61
2021/03/02 09:16:59;;;;;;;75.80;35.15;;;;;;;;;;5083750;28;20029;-60
2021/03/02 09:19:24;;;;;;;65.85;32.05;;;;;;;;;;5082343;28;20382;-60
2021/03/02 09:21:50;;;;;;;64.07;31.05;;;;;;;;;;5084753;28;20073;-60
2021/03/02 09:24:16;;;;;;;61.70;27.85;;;;;;;;;;5083442;28;20038;-61
2021/03/02 09:26:54;;;;;;;56.78;27.73;;;;;;;;;;5082491;28;20032;-61
2021/03/02 09:29:20;;;;;;;68.25;30.52;;;;;;;;;;5082458;28;20033;-61
2021/03/02 09:31:46;;;;;;;54.50;22.70;;;;;;;;;;5075023;28;20016;-61
2021/03/02 09:34:13;;;;;;;44.78;20.42;;;;;;;;;;5074818;28;20036;-61
2021/03/02 09:36:39;;;;;;;71.50;29.38;;;;;;;;;;5074842;28;20012;-60
2021/03/02 09:39:18;;;;;;;62.75;27.27;;;;;;;;;;5075160;28;20032;-60
2021/03/02 09:41:45;;;;;;;67.70;31.55;;;;;;;;;;5073716;28;20467;-60
2021/03/02 09:44:18;;;;;;;59.58;28.52;;;;;;;;;;5074936;28;20044;-60
2021/03/02 09:46:44;;;;;;;72.97;27.90;;;;;;;;;;5074557;28;20021;-60
2021/03/02 09:49:09;;;;;;;69.45;30.05;;;;;;;;;;5074544;28;20012;-60
2021/03/02 09:51:35;;;;;;;67.00;28.77;;;;;;;;;;5074555;28;20086;-60
2021/03/02 09:54:11;;;;;;;58.72;27.55;;;;;;;;;;5074379;28;20020;-60
2021/03/02 09:56:36;;;;;;;54.97;24.55;;;;;;;;;;5074681;28;20028;-60
2021/03/02 09:59:02;;;;;;;64.93;26.65;;;;;;;;;;5074118;28;20072;-60
2021/03/02 10:01:28;;;;;;;56.53;24.92;;;;;;;;;;5073971;28;20020;-60
2021/03/02 10:03:53;;;;;;;62.55;27.33;;;;;;;;;;5074480;28;20013;-60
2021/03/02 10:06:25;;;;;;;55.50;25.90;;;;;;;;;;5074792;28;20094;-60
2021/03/02 10:08:50;;;;;;;44.45;21.42;;;;;;;;;;5071024;28;20051;-60
2021/03/02 10:11:16;;;;;;;62.90;26.02;;;;;;;;;;5072721;28;20515;-60
2021/03/02 10:13:47;;;;;;;55.75;24.92;;;;;;;;;;5072516;28;20086;-60
2021/03/02 10:16:13;;;;;;;46.13;21.90;;;;;;;;;;5071872;28;20485;-60
2021/03/02 10:18:56;;;;;;;44.22;19.27;;;;;;;;;;5071193;28;20078;-61
2021/03/02 10:21:29;;;;;;;43.03;22.20;;;;;;;;;;5072767;28;20033;-60
2021/03/02 10:23:56;;;;;;;45.78;18.70;;;;;;;;;;5072608;28;20054;-62
2021/03/02 10:26:24;;;;;;;40.60;18.98;;;;;;;;;;5073209;28;20022;-60
2021/03/02 10:28:49;;;;;;;40.08;19.50;;;;;;;;;;5073404;28;20036;-60
2021/03/02 10:31:16;;;;;;;39.38;16.92;;;;;;;;;;5073395;28;20066;-60
2021/03/02 10:33:42;;;;;;;41.83;17.02;;;;;;;;;;5073530;28;20024;-60
2021/03/02 10:36:17;;;;;;;35.08;15.38;;;;;;;;;;5073608;28;20436;-61
2021/03/02 10:38:43;;;;;;;40.05;17.15;;;;;;;;;;5073344;28;20043;-60
2021/03/02 10:41:08;;;;;;;35.00;14.80;;;;;;;;;;5073413;28;20024;-60
2021/03/02 10:43:34;;;;;;;35.45;14.98;;;;;;;;;;5073349;28;20384;-61
2021/03/02 10:45:59;;;;;;;39.08;16.23;;;;;;;;;;5071989;28;20464;-62
2021/03/02 10:48:24;;;;;;;31.25;14.52;;;;;;;;;;5073453;28;20430;-62
2021/03/02 10:50:50;;;;;;;33.33;14.57;;;;;;;;;;5073207;28;20538;-62
2021/03/02 10:53:15;;;;;;;32.25;13.82;;;;;;;;;;5073244;28;20063;-62
2021/03/02 10:55:42;;;;;;;31.58;13.57;;;;;;;;;;5073274;28;20028;-62
2021/03/02 10:58:07;;;;;;;26.88;10.82;;;;;;;;;;5071961;28;20116;-62
2021/03/02 11:00:33;;;;;;;29.10;13.85;;;;;;;;;;5073307;28;20020;-62
2021/03/02 11:02:58;;;;;;;33.15;14.95;;;;;;;;;;5073154;28;20025;-64
2021/03/02 11:05:24;;;;;;;28.48;15.02;;;;;;;;;;5055091;28;20027;-64
2021/03/02 11:07:49;;;;;;;28.98;13.82;;;;;;;;;;5071970;28;20036;-64
2021/03/02 11:10:15;;;;;;;31.58;15.23;;;;;;;;;;5073134;28;20025;-64
2021/03/02 11:12:40;;;;;;;29.25;12.80;;;;;;;;;;5071939;28;20391;-64
2021/03/02 11:15:10;;;;;;;27.13;13.45;;;;;;;;;;5072956;28;20024;-65
2021/03/02 11:17:36;;;;;;;24.37;12.47;;;;;;;;;;5072964;28;20426;-65
2021/03/02 11:20:02;;;;;;;26.35;12.98;;;;;;;;;;5072326;28;20045;-65
2021/03/02 11:22:28;;;;;;;28.13;14.38;;;;;;;;;;5073164;28;20103;-65
2021/03/02 11:24:53;;;;;;;25.58;12.70;;;;;;;;;;5072879;28;20478;-65
2021/03/02 11:27:19;;;;;;;25.45;12.15;;;;;;;;;;5071590;28;20032;-65
2021/03/02 11:29:45;;;;;;;24.83;12.20;;;;;;;;;;5072777;28;20024;-65
2021/03/02 11:32:10;;;;;;;24.35;12.13;;;;;;;;;;5077057;28;20115;-65
2021/03/02 11:34:36;;;;;;;24.60;12.32;;;;;;;;;;5076980;28;20016;-65
2021/03/02 11:37:01;;;;;;;23.02;11.50;;;;;;;;;;5076785;28;20134;-65
2021/03/02 11:39:27;;;;;;;22.92;11.20;;;;;;;;;;5075676;28;20028;-65
2021/03/02 11:41:52;;;;;;;25.50;12.88;;;;;;;;;;5076727;28;20028;-65
2021/03/02 11:44:18;;;;;;;26.52;12.73;;;;;;;;;;5076743;28;20017;-65
2021/03/02 11:46:43;;;;;;;23.27;11.95;;;;;;;;;;5076715;28;20028;-65
2021/03/02 11:49:09;;;;;;;23.77;11.68;;;;;;;;;;5076535;28;20077;-65
2021/03/02 11:51:35;;;;;;;23.42;10.95;;;;;;;;;;5076630;28;20020;-65
2021/03/02 11:54:00;;;;;;;28.42;12.43;;;;;;;;;;5076566;28;20027;-65
2021/03/02 11:56:27;;;;;;;23.52;11.90;;;;;;;;;;5076549;28;20033;-65
2021/03/02 11:58:52;;;;;;;25.70;10.88;;;;;;;;;;5076396;28;20025;-65
2021/03/02 12:01:18;;;;;;;19.73;9.82;;;;;;;;;;5075150;28;20029;-65
2021/03/02 12:03:46;;;;;;;22.13;10.13;;;;;;;;;;5076377;28;20012;-65
2021/03/02 12:06:12;;;;;;;22.75;10.18;;;;;;;;;;5076443;28;20024;-65
2021/03/02 12:08:37;;;;;;;21.10;11.20;;;;;;;;;;5076336;28;20025;-65
2021/03/02 12:11:03;;;;;;;23.08;11.63;;;;;;;;;;5076305;28;20031;-65
2021/03/02 12:13:28;;;;;;;20.15;10.13;;;;;;;;;;5076098;28;20380;-65
2021/03/02 12:15:55;;;;;;;23.63;10.77;;;;;;;;;;5075881;28;20032;-65
2021/03/02 12:18:21;;;;;;;20.25;10.50;;;;;;;;;;5076050;28;20033;-65
2021/03/02 12:20:46;;;;;;;21.20;9.82;;;;;;;;;;5074678;28;20113;-65
2021/03/02 12:23:12;;;;;;;19.52;10.60;;;;;;;;;;5075934;28;20120;-65
2021/03/02 12:25:37;;;;;;;20.40;10.57;;;;;;;;;;5075851;28;20020;-65
2021/03/02 12:28:03;;;;;;;23.83;11.45;;;;;;;;;;5075895;28;20024;-64
2021/03/02 12:30:29;;;;;;;17.50;8.82;;;;;;;;;;5074626;28;20483;-64
2021/03/02 12:32:54;;;;;;;17.05;9.00;;;;;;;;;;5076051;28;20021;-64
2021/03/02 12:35:20;;;;;;;20.77;9.95;;;;;;;;;;5075699;28;20025;-64
2021/03/02 12:37:46;;;;;;;20.52;9.80;;;;;;;;;;5075630;28;20426;-64
2021/03/02 12:40:12;;;;;;;15.90;8.30;;;;;;;;;;5075695;28;20052;-64
2021/03/02 12:42:37;;;;;;;21.38;10.95;;;;;;;;;;5074445;28;20055;-64
2021/03/02 12:45:03;;;;;;;16.40;8.13;;;;;;;;;;5074299;28;20572;-64
2021/03/02 12:47:28;;;;;;;12.43;7.88;;;;;;;;;;5075635;28;20020;-64
2021/03/02 12:50:02;;;;;;;17.45;8.20;;;;;;;;;;5075497;28;20063;-64
2021/03/02 12:52:31;;;;;;;17.42;8.43;;;;;;;;;;5075439;28;20492;-64
2021/03/02 12:54:57;;;;;;;14.30;8.10;;;;;;;;;;5075337;28;20046;-64
2021/03/02 12:57:22;;;;;;;14.60;7.95;;;;;;;;;;5075228;28;20039;-64
2021/03/02 12:59:48;;;;;;;16.25;7.53;;;;;;;;;;5075346;28;20023;-64
2021/03/02 13:02:13;;;;;;;16.27;7.05;;;;;;;;;;5074118;28;20036;-64
2021/03/02 13:04:39;;;;;;;13.88;7.07;;;;;;;;;;5075218;28;20020;-64
2021/03/02 13:07:05;;;;;;;14.05;7.63;;;;;;;;;;5075245;28;20032;-64
2021/03/02 13:09:30;;;;;;;14.75;7.03;;;;;;;;;;5074967;28;20021;-64
2021/03/02 13:11:58;;;;;;;14.02;7.72;;;;;;;;;;5075163;28;20025;-64
2021/03/02 13:14:23;;;;;;;15.82;7.03;;;;;;;;;;5073739;28;20016;-64
2021/03/02 13:16:50;;;;;;;14.73;7.70;;;;;;;;;;5073878;28;20101;-64
2021/03/02 13:19:16;;;;;;;10.82;6.10;;;;;;;;;;5074577;28;20119;-64
2021/03/02 13:21:41;;;;;;;13.75;6.65;;;;;;;;;;5074994;28;20508;-65
2021/03/02 13:24:07;;;;;;;11.02;6.38;;;;;;;;;;5074865;28;20542;-65
2021/03/02 13:26:35;;;;;;;13.32;7.50;;;;;;;;;;5074830;28;20033;-65
2021/03/02 13:29:05;;;;;;;11.18;6.10;;;;;;;;;;5074832;28;20421;-61
2021/03/02 13:31:30;;;;;;;10.05;6.25;;;;;;;;;;5074755;28;20028;-65
2021/03/02 13:33:57;;;;;;;14.10;6.38;;;;;;;;;;5074589;28;20045;-65
2021/03/02 13:36:23;;;;;;;10.52;6.55;;;;;;;;;;5074710;28;20078;-65
2021/03/02 13:38:50;;;;;;;13.57;6.68;;;;;;;;;;5074526;28;20017;-65
2021/03/02 13:41:16;;;;;;;10.27;5.97;;;;;;;;;;5074595;28;20067;-65
2021/03/02 13:43:44;;;;;;;9.57;5.50;;;;;;;;;;5074495;28;20048;-65
2021/03/02 13:46:10;;;;;;;12.23;7.13;;;;;;;;;;5073285;28;20033;-65
2021/03/02 13:48:35;;;;;;;10.93;6.63;;;;;;;;;;5074399;28;20031;-65
2021/03/02 13:51:01;;;;;;;11.88;6.35;;;;;;;;;;5074360;28;20029;-65
2021/03/02 13:53:31;;;;;;;12.13;6.68;;;;;;;;;;5073991;28;20028;-65
2021/03/02 13:55:57;;;;;;;13.77;7.28;;;;;;;;;;5074301;28;20033;-65
2021/03/02 13:58:24;;;;;;;11.38;6.03;;;;;;;;;;5074117;28;20487;-65
2021/03/02 14:00:51;;;;;;;11.10;6.72;;;;;;;;;;5074139;28;20573;-65
2021/03/02 14:03:17;;;;;;;11.30;6.47;;;;;;;;;;5074054;28;20399;-65
2021/03/02 14:05:44;;;;;;;11.95;6.50;;;;;;;;;;5072805;28;20101;-65
2021/03/02 14:08:10;;;;;;;10.32;5.55;;;;;;;;;;5074051;28;20358;-65
2021/03/02 14:10:36;;;;;;;10.98;6.20;;;;;;;;;;5073965;28;20032;-64
2021/03/02 14:13:04;;;;;;;10.13;6.22;;;;;;;;;;5073898;28;20109;-64
2021/03/02 14:15:34;;;;;;;12.63;6.55;;;;;;;;;;5073771;28;20032;-64
2021/03/02 14:18:01;;;;;;;10.18;6.32;;;;;;;;;;5073739;28;20035;-64